Time;durP1;ratioP1;P1;durP2;ratioP2;P2;SDS_P1;SDS_P2;PMS_P1;PMS_P2;Temp;Humidity;BMP_temperature;BMP_pressure;BME280_temperature;BME280_humidity;BME280_pressure;Samples;Min_cycle;Max_cycle;Signal;HPM_P1;HPM_P2
2021/06/21 00:00:36;;;;;;;14.73;13.23;;;;;;;24.57;60.70;98842.50;2060658;28;20279;-62
2021/06/21 00:01:37;;;;;;;14.37;12.80;;;;;;;24.57;60.66;98848.00;2062437;28;20776;-62
2021/06/21 00:02:38;;;;;;;15.80;13.87;;;;;;;24.56;60.55;98846.34;2046040;28;20041;-62
2021/06/21 00:03:39;;;;;;;15.57;13.90;;;;;;;24.57;60.59;98848.00;2052976;28;20022;-63
2021/06/21 00:04:39;;;;;;;14.57;13.13;;;;;;;24.57;60.83;98834.25;2057758;28;20509;-63
2021/06/21 00:05:40;;;;;;;14.50;12.93;;;;;;;24.56;60.71;98840.81;2056609;28;20026;-62
2021/06/21 00:06:40;;;;;;;14.87;13.20;;;;;;;24.56;60.59;98835.31;2058324;28;20710;-62
2021/06/21 00:07:41;;;;;;;15.83;14.03;;;;;;;24.57;60.63;98837.00;2062825;28;20029;-62
2021/06/21 00:09:12;;;;;;;14.60;13.10;;;;;;;24.56;60.66;98832.56;2063681;28;20108;-62
2021/06/21 00:10:15;;;;;;;15.48;13.88;;;;;;;24.56;60.66;98835.31;2061882;28;20034;-63
2021/06/21 00:11:16;;;;;;;17.92;13.35;;;;;;;24.55;60.64;98833.63;2056039;28;20105;-62
2021/06/21 00:12:17;;;;;;;15.33;13.43;;;;;;;24.56;60.57;98824.28;2056426;28;20587;-62
2021/06/21 00:13:36;;;;;;;14.70;12.73;;;;;;;24.55;60.63;98819.84;2062502;28;20049;-62
2021/06/21 00:15:08;;;;;;;15.10;12.90;;;;;;;24.52;60.71;98832.16;2056569;28;20085;-62
2021/06/21 00:16:10;;;;;;;15.02;13.38;;;;;;;24.53;60.75;98830.25;2056486;28;20022;-62
2021/06/21 00:17:10;;;;;;;14.18;12.70;;;;;;;24.54;60.79;98826.41;2064325;28;20351;-62
2021/06/21 00:18:14;;;;;;;14.17;12.50;;;;;;;24.55;60.59;98828.13;2062023;28;20157;-63
2021/06/21 00:19:14;;;;;;;14.85;12.93;;;;;;;24.55;60.85;98819.84;2056773;28;20109;-63
2021/06/21 00:20:16;;;;;;;15.13;13.53;;;;;;;24.56;60.59;98824.28;2057282;28;20026;-63
2021/06/21 00:21:17;;;;;;;14.57;12.73;;;;;;;24.55;60.69;98822.63;2054977;28;20105;-62
2021/06/21 00:22:19;;;;;;;14.40;12.90;;;;;;;24.55;60.54;98811.59;2063600;28;20080;-62
2021/06/21 00:23:20;;;;;;;13.93;12.50;;;;;;;24.55;60.67;98808.84;2063107;28;20068;-62
2021/06/21 00:24:21;;;;;;;;;;;;;;;24.49;60.79;98807.78;2064843;28;20452;-63
2021/06/21 00:25:23;;;;;;;14.05;12.57;;;;;;;24.51;60.87;98804.81;2055898;28;19918;-62
2021/06/21 00:26:23;;;;;;;14.40;12.20;;;;;;;24.51;60.70;98800.16;2047811;28;20034;-63
2021/06/21 00:27:26;;;;;;;13.90;12.50;;;;;;;24.51;60.65;98791.88;2057250;28;20125;-63
2021/06/21 00:28:27;;;;;;;13.70;12.25;;;;;;;24.51;60.64;98800.16;2068637;28;20053;-62
2021/06/21 00:29:27;;;;;;;14.93;12.07;;;;;;;24.52;60.74;98795.47;2059460;28;20029;-62
2021/06/21 00:30:28;;;;;;;14.07;12.47;;;;;;;24.53;60.63;98794.44;2058137;28;20036;-62
2021/06/21 00:31:28;;;;;;;15.23;13.63;;;;;;;24.53;60.82;98798.03;2063630;28;20041;-63
2021/06/21 00:32:29;;;;;;;12.93;11.63;;;;;;;24.54;60.60;98799.69;2060023;28;20034;-62
2021/06/21 00:33:30;;;;;;;14.73;13.17;;;;;;;24.52;60.60;98796.34;2057993;28;20116;-62
2021/06/21 00:34:40;;;;;;;14.30;12.20;;;;;;;24.52;60.69;98796.34;2060239;28;20032;-63
2021/06/21 00:35:41;;;;;;;14.55;13.05;;;;;;;24.54;60.51;98785.09;2065561;28;20022;-62
2021/06/21 00:36:42;;;;;;;14.23;12.73;;;;;;;24.54;60.72;98788.69;2069671;28;20032;-62
2021/06/21 00:37:43;;;;;;;12.83;11.40;;;;;;;24.54;60.76;98790.59;2063114;28;20033;-62
2021/06/21 00:38:43;;;;;;;14.10;12.60;;;;;;;24.53;60.50;98787.00;2054656;28;20552;-63
2021/06/21 00:39:44;;;;;;;13.57;12.10;;;;;;;24.54;60.62;98788.69;2061740;28;20145;-62
2021/06/21 00:40:45;;;;;;;14.37;12.87;;;;;;;24.54;60.60;98785.09;2063104;28;20022;-62
2021/06/21 00:41:45;;;;;;;14.20;12.75;;;;;;;24.53;60.66;98786.16;2063949;28;20334;-63
2021/06/21 00:42:47;;;;;;;13.67;12.13;;;;;;;24.54;60.66;98787.84;2062325;28;20040;-63
2021/06/21 00:43:47;;;;;;;13.75;12.23;;;;;;;24.55;60.57;98778.53;2065179;28;20100;-62
2021/06/21 00:44:48;;;;;;;13.67;12.27;;;;;;;24.54;60.52;98785.09;2064164;28;20481;-63
2021/06/21 00:45:48;;;;;;;13.13;11.77;;;;;;;24.54;60.48;98782.34;2067327;28;20022;-63
2021/06/21 00:46:49;;;;;;;13.10;11.30;;;;;;;24.54;60.62;98787.84;2063317;28;20288;-63
2021/06/21 00:47:51;;;;;;;14.17;12.77;;;;;;;24.54;60.52;98777.66;2069768;28;20964;-62
2021/06/21 00:48:51;;;;;;;14.60;12.65;;;;;;;24.55;60.54;98770.28;2055231;28;20564;-62
2021/06/21 00:49:52;;;;;;;13.93;12.20;;;;;;;24.54;60.54;98771.31;2058980;28;20704;-62
2021/06/21 00:50:52;;;;;;;14.20;12.63;;;;;;;24.52;60.45;98766.03;2065294;28;20022;-62
2021/06/21 00:51:53;;;;;;;13.43;11.93;;;;;;;24.54;60.40;98768.56;2062994;28;20022;-63
2021/06/21 00:52:56;;;;;;;13.67;12.23;;;;;;;24.53;60.45;98758.63;2064178;28;20117;-62
2021/06/21 00:53:56;;;;;;;12.18;10.93;;;;;;;24.53;60.43;98764.13;2068192;28;20040;-63
2021/06/21 00:55:00;;;;;;;13.53;12.07;;;;;;;24.52;60.78;98756.91;2061081;28;20529;-62
2021/06/21 00:56:01;;;;;;;14.38;11.43;;;;;;;24.53;60.55;98764.13;2063914;28;20021;-63
2021/06/21 00:57:01;;;;;;;14.30;12.77;;;;;;;24.54;60.58;98760.31;2063427;28;20182;-62
2021/06/21 00:58:02;;;;;;;13.37;11.97;;;;;;;24.54;60.54;98763.06;2063291;28;20101;-62
2021/06/21 00:59:04;;;;;;;12.35;10.93;;;;;;;24.53;60.61;98755.88;2063663;28;20709;-62
2021/06/21 01:00:10;;;;;;;13.43;11.65;;;;;;;24.54;60.37;98754.78;2066082;28;20353;-62
2021/06/21 01:01:10;;;;;;;15.60;12.80;;;;;;;24.54;60.42;98749.28;2072523;28;20380;-62
2021/06/21 01:02:11;;;;;;;12.70;11.40;;;;;;;24.54;60.51;98754.78;2065135;28;20013;-63
2021/06/21 01:03:12;;;;;;;12.37;11.07;;;;;;;24.54;60.55;98754.78;2063947;28;20683;-63
2021/06/21 01:04:12;;;;;;;13.23;11.83;;;;;;;24.52;60.59;98751.41;2072172;28;20505;-63
2021/06/21 01:05:16;;;;;;;15.03;12.00;;;;;;;24.54;60.42;98754.78;2065206;28;20026;-63
2021/06/21 01:06:16;;;;;;;13.68;12.15;;;;;;;24.53;60.51;98748.44;2064804;28;20049;-62
2021/06/21 01:07:17;;;;;;;13.73;12.43;;;;;;;24.52;60.52;98741.25;2061923;28;20014;-64
2021/06/21 01:08:46;;;;;;;13.60;12.20;;;;;;;24.51;60.64;98734.03;2062673;28;20034;-63
2021/06/21 01:09:49;;;;;;;12.30;10.93;;;;;;;24.51;60.52;98733.19;2056099;28;20038;-62
2021/06/21 01:10:52;;;;;;;12.45;10.95;;;;;;;24.51;60.57;98738.72;2065645;28;20167;-63
2021/06/21 01:11:57;;;;;;;13.20;11.80;;;;;;;24.51;60.46;98727.69;2063908;28;20022;-62
2021/06/21 01:13:26;;;;;;;12.57;11.27;;;;;;;24.50;60.51;98720.47;2060937;28;20072;-62
2021/06/21 01:14:31;;;;;;;15.25;11.52;;;;;;;24.49;60.56;98722.38;2062287;28;20061;-62
2021/06/21 01:15:39;;;;;;;12.77;11.48;;;;;;;24.50;60.41;98720.47;2059588;28;20033;-63
2021/06/21 01:16:44;;;;;;;12.82;11.48;;;;;;;24.51;60.52;98722.19;2064674;28;20018;-62
2021/06/21 01:17:48;;;;;;;13.82;11.70;;;;;;;24.50;60.48;98709.44;2063454;28;20080;-62
2021/06/21 01:19:10;;;;;;;12.68;11.38;;;;;;;24.50;60.51;98714.97;2061638;28;20644;-62
2021/06/21 01:20:22;;;;;;;12.07;10.68;;;;;;;24.49;60.44;98707.78;2062219;28;20101;-62
2021/06/21 01:21:41;;;;;;;12.43;10.77;;;;;;;24.49;60.62;98718.78;2056365;28;20265;-62
2021/06/21 01:23:09;;;;;;;13.48;11.43;;;;;;;24.48;60.69;98712.44;2062339;28;20118;-63
2021/06/21 01:24:47;;;;;;;13.20;11.88;;;;;;;24.46;60.64;98711.81;2061226;28;20511;-63
2021/06/21 01:26:19;;;;;;;12.65;11.00;;;;;;;24.45;60.60;98706.47;2062590;28;20243;-63
2021/06/21 01:27:42;;;;;;;12.88;11.18;;;;;;;24.46;60.81;98708.22;2063268;28;20266;-63
2021/06/21 01:29:17;;;;;;;12.68;11.27;;;;;;;24.45;60.66;98703.72;2059590;28;20109;-62
2021/06/21 01:30:22;;;;;;;13.90;11.60;;;;;;;24.44;60.88;98705.63;2062231;28;20457;-62
2021/06/21 01:31:28;;;;;;;11.82;10.63;;;;;;;24.46;60.69;98708.22;2064092;28;20033;-62
2021/06/21 01:32:45;;;;;;;13.15;11.85;;;;;;;24.45;60.90;98712.00;2053012;28;20030;-62
2021/06/21 01:33:48;;;;;;;12.48;11.18;;;;;;;24.47;60.58;98715.41;2053726;28;20445;-62
2021/06/21 01:34:52;;;;;;;12.85;11.50;;;;;;;24.47;60.75;98710.72;2067249;28;20024;-62
2021/06/21 01:36:01;;;;;;;13.10;11.48;;;;;;;24.47;60.80;98715.41;2068432;28;20551;-62
2021/06/21 01:37:02;;;;;;;12.35;11.13;;;;;;;24.47;60.72;98715.41;2067692;28;20021;-63
2021/06/21 01:38:13;;;;;;;12.75;11.32;;;;;;;24.47;60.75;98715.41;2063983;28;20144;-62
2021/06/21 01:39:14;;;;;;;13.27;11.88;;;;;;;24.47;60.76;98710.72;2059851;28;20482;-62
2021/06/21 01:40:18;;;;;;;12.40;11.10;;;;;;;24.46;60.49;98711.81;2071770;28;20029;-62
2021/06/21 01:41:28;;;;;;;11.55;10.35;;;;;;;24.47;60.58;98710.72;2062043;28;20030;-62
2021/06/21 01:42:30;;;;;;;11.90;10.70;;;;;;;24.47;60.61;98704.38;2062750;28;20436;-62
2021/06/21 01:43:35;;;;;;;11.63;10.43;;;;;;;24.48;60.62;98711.59;2064138;28;20030;-62
2021/06/21 01:44:41;;;;;;;12.40;10.98;;;;;;;24.49;60.65;98707.78;2059921;28;20349;-62
2021/06/21 01:45:43;;;;;;;13.48;12.05;;;;;;;24.49;60.56;98702.25;2056889;28;20018;-63
2021/06/21 01:46:47;;;;;;;12.15;10.23;;;;;;;24.49;60.65;98699.50;2063277;28;20108;-62
2021/06/21 01:47:49;;;;;;;13.20;11.52;;;;;;;24.48;60.75;98711.59;2061118;28;20027;-63
2021/06/21 01:49:03;;;;;;;14.35;11.15;;;;;;;24.48;60.65;98704.19;2067952;28;20040;-63
2021/06/21 01:50:06;;;;;;;12.40;11.02;;;;;;;24.49;60.49;98702.25;2063126;28;20030;-63
2021/06/21 01:51:07;;;;;;;13.45;10.98;;;;;;;24.48;60.51;98706.09;2058118;28;20125;-62
2021/06/21 01:52:12;;;;;;;12.03;10.80;;;;;;;24.48;60.71;98700.59;2061842;28;20036;-62
2021/06/21 01:53:19;;;;;;;11.85;10.38;;;;;;;24.48;60.58;98706.09;2060452;28;20029;-62
2021/06/21 01:54:25;;;;;;;12.52;11.23;;;;;;;24.48;60.50;98700.59;2058867;28;20037;-62
2021/06/21 01:55:28;;;;;;;11.25;10.05;;;;;;;24.49;60.65;98713.28;2058540;28;20098;-63
2021/06/21 01:56:40;;;;;;;12.80;10.27;;;;;;;24.47;60.71;98704.38;2067009;28;20025;-62
2021/06/21 01:57:45;;;;;;;12.32;10.52;;;;;;;24.46;60.58;98713.72;2062113;28;20493;-62
2021/06/21 01:58:49;;;;;;;12.52;11.00;;;;;;;24.47;60.69;98718.16;2060832;28;20049;-62
2021/06/21 01:59:51;;;;;;;12.45;11.13;;;;;;;24.48;60.54;98717.94;2056650;28;20105;-63
2021/06/21 02:00:51;;;;;;;12.40;11.15;;;;;;;24.48;60.48;98715.19;2056284;28;20084;-62
2021/06/21 02:01:54;;;;;;;12.30;10.67;;;;;;;24.48;60.61;98704.19;2063549;28;20038;-62
2021/06/21 02:02:57;;;;;;;12.18;10.88;;;;;;;24.47;60.69;98710.72;2057755;28;20076;-62
2021/06/21 02:04:00;;;;;;;11.77;10.50;;;;;;;24.49;60.67;98707.78;2062800;28;20471;-63
2021/06/21 02:05:02;;;;;;;11.55;10.35;;;;;;;24.48;60.43;98717.94;2067335;28;20280;-63
2021/06/21 02:06:04;;;;;;;11.77;10.13;;;;;;;24.48;60.59;98711.59;2053824;28;20610;-63
2021/06/21 02:07:07;;;;;;;12.85;10.88;;;;;;;24.48;60.57;98722.63;2054893;28;20056;-63
2021/06/21 02:08:12;;;;;;;12.48;11.18;;;;;;;24.48;60.36;98717.94;2063585;28;20846;-63
2021/06/21 02:09:13;;;;;;;12.32;10.63;;;;;;;24.49;60.62;98716.03;2068103;28;20028;-63
2021/06/21 02:10:15;;;;;;;12.90;10.27;;;;;;;24.48;60.40;98715.19;2069904;28;20017;-61
2021/06/21 02:11:17;;;;;;;11.68;10.48;;;;;;;24.47;60.37;98716.25;2057137;28;20077;-60
2021/06/21 02:12:19;;;;;;;;;;;;;;;24.44;60.71;98715.81;2064384;28;20755;-61
2021/06/21 02:13:22;;;;;;;12.20;11.00;;;;;;;24.45;60.61;98717.50;2067538;28;20464;-61
2021/06/21 02:14:26;;;;;;;12.43;10.85;;;;;;;24.46;60.73;98716.47;2062792;28;20563;-61
2021/06/21 02:15:28;;;;;;;13.55;11.07;;;;;;;24.46;60.58;98713.72;2062154;28;20089;-61
2021/06/21 02:16:29;;;;;;;10.82;9.63;;;;;;;24.45;60.67;98715.63;2062911;28;20467;-61
2021/06/21 02:17:31;;;;;;;11.82;10.05;;;;;;;24.46;60.51;98705.47;2063316;28;20030;-61
2021/06/21 02:18:34;;;;;;;12.43;10.52;;;;;;;24.47;60.73;98716.25;2060084;28;20096;-61
2021/06/21 02:19:35;;;;;;;13.07;11.77;;;;;;;24.46;60.87;98713.72;2072008;28;20168;-60
2021/06/21 02:20:36;;;;;;;10.50;8.88;;;;;;;24.46;60.51;98709.06;2062299;28;20022;-61
2021/06/21 02:21:38;;;;;;;11.33;10.23;;;;;;;24.46;60.67;98713.72;2063386;28;20052;-61
2021/06/21 02:22:39;;;;;;;11.70;10.50;;;;;;;24.46;60.56;98719.25;2062198;28;20042;-61
2021/06/21 02:23:41;;;;;;;11.10;10.00;;;;;;;24.46;60.51;98713.72;2058302;28;20037;-61
2021/06/21 02:24:42;;;;;;;12.38;10.98;;;;;;;24.46;60.65;98720.06;2071561;28;20087;-61
2021/06/21 02:25:45;;;;;;;10.97;9.87;;;;;;;24.46;60.60;98716.47;2057650;28;20058;-61
2021/06/21 02:26:47;;;;;;;11.90;10.65;;;;;;;24.46;60.50;98719.25;2062857;28;20026;-61
2021/06/21 02:27:49;;;;;;;10.40;9.32;;;;;;;24.46;60.61;98713.72;2062462;28;20488;-61
2021/06/21 02:28:52;;;;;;;11.25;10.13;;;;;;;24.46;60.64;98719.25;2068346;28;20033;-61
2021/06/21 02:29:56;;;;;;;11.65;10.45;;;;;;;24.46;60.68;98719.25;2062839;28;20664;-61
2021/06/21 02:30:58;;;;;;;10.63;9.55;;;;;;;24.46;60.42;98724.75;2062145;28;20049;-61
2021/06/21 02:31:59;;;;;;;12.55;10.05;;;;;;;24.45;60.49;98718.38;2063011;28;20028;-61
2021/06/21 02:33:18;;;;;;;11.80;10.23;;;;;;;24.45;60.71;98728.50;2057460;28;20030;-61
2021/06/21 02:34:19;;;;;;;10.57;9.50;;;;;;;24.44;60.68;98722.16;2062622;28;20022;-61
2021/06/21 02:35:20;;;;;;;11.03;9.57;;;;;;;24.44;60.62;98721.31;2063557;28;20440;-61
2021/06/21 02:36:20;;;;;;;11.00;9.43;;;;;;;24.45;60.56;98717.50;2067028;28;21128;-61
2021/06/21 02:37:21;;;;;;;11.33;10.13;;;;;;;24.45;60.61;98725.75;2066828;28;20594;-61
2021/06/21 02:38:22;;;;;;;11.18;10.07;;;;;;;24.45;60.61;98723.00;2063577;28;20336;-61
2021/06/21 02:39:23;;;;;;;10.35;9.30;;;;;;;24.45;60.76;98728.50;2064173;28;20025;-61
2021/06/21 02:40:25;;;;;;;10.67;9.60;;;;;;;24.45;60.75;98723.00;2068067;28;20079;-61
2021/06/21 02:41:25;;;;;;;11.55;10.25;;;;;;;24.45;60.69;98728.50;2060807;28;20100;-61
2021/06/21 02:42:26;;;;;;;11.43;10.33;;;;;;;24.44;60.69;98729.59;2062551;28;20088;-61
2021/06/21 02:43:26;;;;;;;10.70;9.37;;;;;;;24.44;60.46;98724.09;2063557;28;20030;-61
2021/06/21 02:44:27;;;;;;;12.37;10.13;;;;;;;24.44;60.68;98726.84;2063515;28;20064;-61
2021/06/21 02:45:29;;;;;;;10.80;9.70;;;;;;;24.43;60.54;98731.50;2063622;28;20466;-60
2021/06/21 02:46:29;;;;;;;;;;;;;;;24.38;60.80;98732.16;2055653;28;20026;-61
2021/06/21 02:47:30;;;;;;;11.13;9.95;;;;;;;24.41;60.90;98732.78;2054124;28;19968;-61
2021/06/21 02:48:31;;;;;;;10.53;9.43;;;;;;;24.41;60.83;98730.88;2056475;28;20034;-61
2021/06/21 02:49:32;;;;;;;11.43;10.27;;;;;;;24.42;60.77;98731.72;2061491;28;20076;-61
2021/06/21 02:50:33;;;;;;;10.70;9.67;;;;;;;24.41;60.62;98735.53;2061686;28;20552;-61
2021/06/21 02:51:40;;;;;;;11.00;9.90;;;;;;;24.41;60.66;98735.53;2062871;28;20026;-61
2021/06/21 02:53:12;;;;;;;11.57;8.90;;;;;;;24.41;60.74;98732.78;2057168;28;20045;-61
2021/06/21 02:54:24;;;;;;;10.70;9.65;;;;;;;24.39;60.67;98736.59;2054015;28;20030;-61
2021/06/21 02:55:43;;;;;;;;;;;;;;;24.35;60.90;98735.34;2056858;28;20014;-61
2021/06/21 02:57:02;;;;;;;10.63;9.38;;;;;;;24.35;60.84;98735.34;2063609;28;19913;-61
2021/06/21 02:58:27;;;;;;;11.40;9.40;;;;;;;24.34;60.85;98733.63;2063087;28;20036;-61
2021/06/21 02:59:32;;;;;;;10.48;9.38;;;;;;;24.37;60.80;98738.72;2045642;28;20044;-61
2021/06/21 03:00:34;;;;;;;10.20;9.07;;;;;;;24.38;60.67;98734.91;2057420;28;20478;-61
2021/06/21 03:01:37;;;;;;;10.57;9.48;;;;;;;24.39;60.73;98731.06;2071428;28;20226;-61
2021/06/21 03:02:39;;;;;;;10.68;9.55;;;;;;;24.38;60.71;98732.16;2063766;28;20062;-60
2021/06/21 03:03:45;;;;;;;10.40;9.30;;;;;;;24.38;60.50;98729.41;2054247;28;20077;-60
2021/06/21 03:04:46;;;;;;;10.77;9.70;;;;;;;24.39;60.67;98728.31;2048624;28;20026;-61
2021/06/21 03:05:49;;;;;;;10.73;9.63;;;;;;;24.39;60.87;98731.06;2058175;28;20404;-61
2021/06/21 03:06:52;;;;;;;9.32;8.35;;;;;;;24.39;60.87;98728.31;2064314;28;20025;-61
2021/06/21 03:07:54;;;;;;;9.60;8.70;;;;;;;24.39;60.57;98731.06;2053490;28;20026;-61
2021/06/21 03:08:54;;;;;;;;;;;;;;;24.36;60.89;98725.16;2053987;28;20031;-61
2021/06/21 03:09:58;;;;;;;10.23;8.68;;;;;;;24.37;60.82;98729.59;2062430;28;19916;-61
2021/06/21 03:11:01;;;;;;;9.88;8.77;;;;;;;24.38;60.73;98723.88;2063527;28;20100;-62
2021/06/21 03:12:02;;;;;;;10.27;9.18;;;;;;;24.38;60.91;98723.88;2062568;28;20009;-62
2021/06/21 03:13:03;;;;;;;10.43;9.20;;;;;;;24.37;60.80;98713.91;2061504;28;20094;-62
2021/06/21 03:14:05;;;;;;;9.98;8.98;;;;;;;24.38;60.67;98718.38;2061170;28;20045;-61
2021/06/21 03:15:06;;;;;;;10.02;9.02;;;;;;;24.39;60.58;98721.97;2059718;28;20189;-62
2021/06/21 03:16:08;;;;;;;11.80;9.55;;;;;;;24.37;60.64;98722.19;2058537;28;20113;-61
2021/06/21 03:17:10;;;;;;;10.30;9.20;;;;;;;24.39;60.86;98720.06;2065267;28;20029;-61
2021/06/21 03:18:11;;;;;;;10.02;8.73;;;;;;;24.39;60.57;98720.06;2064027;28;20029;-61
2021/06/21 03:19:13;;;;;;;10.50;9.35;;;;;;;24.41;60.83;98721.78;2060814;28;20029;-62
2021/06/21 03:20:14;;;;;;;9.43;8.52;;;;;;;24.41;60.62;98730.03;2064320;28;20025;-62
2021/06/21 03:21:17;;;;;;;9.33;8.43;;;;;;;24.41;60.61;98721.78;2059138;28;20029;-61
2021/06/21 03:22:19;;;;;;;10.68;9.18;;;;;;;24.42;60.48;98731.72;2060873;28;20057;-61
2021/06/21 03:23:24;;;;;;;9.52;8.52;;;;;;;24.41;60.57;98724.53;2061410;28;20924;-61
2021/06/21 03:24:26;;;;;;;10.25;9.18;;;;;;;24.41;60.53;98721.78;2066695;28;20033;-61
2021/06/21 03:25:33;;;;;;;9.95;8.75;;;;;;;24.40;60.74;98729.19;2058796;28;20054;-61
2021/06/21 03:26:33;;;;;;;10.57;9.50;;;;;;;24.40;60.58;98731.94;2063541;28;20465;-61
2021/06/21 03:27:36;;;;;;;9.73;8.63;;;;;;;24.41;60.75;98732.78;2061193;28;20410;-61
2021/06/21 03:28:37;;;;;;;9.68;8.68;;;;;;;24.41;60.61;98730.03;2061242;28;20034;-62
2021/06/21 03:29:38;;;;;;;10.03;8.97;;;;;;;24.41;60.62;98732.78;2059478;28;20160;-62
2021/06/21 03:31:05;;;;;;;9.83;8.93;;;;;;;24.38;60.71;98737.66;2055200;28;20272;-62
2021/06/21 03:32:31;;;;;;;10.43;8.70;;;;;;;24.37;60.83;98729.59;2053181;28;20121;-62
2021/06/21 03:33:33;;;;;;;11.30;9.25;;;;;;;24.37;60.66;98726.84;2050891;28;20214;-61
2021/06/21 03:34:34;;;;;;;8.73;7.78;;;;;;;24.39;60.68;98736.59;2060689;28;20018;-62
2021/06/21 03:35:35;;;;;;;9.57;8.63;;;;;;;24.39;60.56;98733.84;2063405;28;20040;-61
2021/06/21 03:36:35;;;;;;;9.00;8.10;;;;;;;24.41;60.57;98738.28;2061868;28;20052;-61
2021/06/21 03:37:36;;;;;;;10.43;9.33;;;;;;;24.38;60.65;98734.91;2061273;28;20061;-61
2021/06/21 03:38:38;;;;;;;9.80;8.70;;;;;;;24.39;60.58;98738.50;2063160;28;20466;-62
2021/06/21 03:39:38;;;;;;;10.45;9.13;;;;;;;24.39;60.56;98741.25;2065573;28;20473;-61
2021/06/21 03:40:39;;;;;;;9.90;8.87;;;;;;;24.38;60.68;98737.66;2064387;28;20501;-62
2021/06/21 03:41:40;;;;;;;10.87;9.03;;;;;;;24.39;60.78;98735.75;2058792;28;20097;-61
2021/06/21 03:42:41;;;;;;;9.93;8.93;;;;;;;24.38;60.67;98740.41;2061607;28;20030;-61
2021/06/21 03:43:45;;;;;;;10.80;8.93;;;;;;;24.38;60.58;98742.34;2061897;28;20052;-61
2021/06/21 03:44:46;;;;;;;9.45;8.18;;;;;;;24.38;60.60;98743.16;2066121;28;20025;-62
2021/06/21 03:45:50;;;;;;;10.25;9.15;;;;;;;24.38;60.48;98740.41;2062639;28;20057;-62
2021/06/21 03:46:51;;;;;;;10.63;8.55;;;;;;;24.38;60.58;98743.16;2063583;28;20042;-61
2021/06/21 03:47:51;;;;;;;9.03;8.13;;;;;;;24.38;60.64;98745.09;2061592;28;20014;-62
2021/06/21 03:48:52;;;;;;;9.30;8.30;;;;;;;24.38;60.66;98745.91;2061951;28;20642;-61
2021/06/21 03:49:52;;;;;;;10.70;9.33;;;;;;;24.37;60.45;98744.22;2054283;28;20458;-61
2021/06/21 03:50:53;;;;;;;9.77;8.20;;;;;;;24.38;60.67;98745.91;2054965;28;20026;-62
2021/06/21 03:51:53;;;;;;;9.53;8.10;;;;;;;24.38;60.79;98745.91;2060182;28;20170;-62
2021/06/21 03:52:54;;;;;;;9.07;8.10;;;;;;;24.38;60.75;98745.09;2063220;28;20488;-62
2021/06/21 03:53:55;;;;;;;10.50;8.33;;;;;;;24.36;60.60;98742.53;2060630;28;20093;-61
2021/06/21 03:55:08;;;;;;;9.17;8.03;;;;;;;24.37;60.57;98746.97;2064124;28;20484;-62
2021/06/21 03:56:08;;;;;;;9.50;8.57;;;;;;;24.37;60.66;98744.22;2056783;28;20045;-62
2021/06/21 03:57:09;;;;;;;9.10;8.17;;;;;;;24.36;60.62;98742.53;2063086;28;20017;-61
2021/06/21 03:58:10;;;;;;;9.82;8.82;;;;;;;24.37;60.82;98737.88;2061673;28;20014;-61
2021/06/21 03:59:10;;;;;;;10.17;8.50;;;;;;;24.37;60.60;98744.22;2063263;28;20018;-61
2021/06/21 04:00:16;;;;;;;8.80;7.90;;;;;;;24.37;60.68;98743.38;2060406;28;20022;-61
2021/06/21 04:01:17;;;;;;;9.00;7.93;;;;;;;24.37;60.59;98744.22;2064425;28;20605;-61
2021/06/21 04:02:18;;;;;;;8.73;7.80;;;;;;;24.37;60.51;98749.72;2065787;28;20123;-61
2021/06/21 04:03:18;;;;;;;11.00;8.80;;;;;;;24.36;60.63;98752.72;2061835;28;20030;-61
2021/06/21 04:04:19;;;;;;;10.70;8.97;;;;;;;24.36;60.59;98749.97;2069866;28;20025;-61
2021/06/21 04:05:20;;;;;;;9.40;8.00;;;;;;;24.37;60.65;98744.22;2054231;28;20023;-62
2021/06/21 04:06:20;;;;;;;9.60;8.52;;;;;;;24.37;60.57;98746.97;2052985;28;20058;-62
2021/06/21 04:07:20;;;;;;;10.47;8.40;;;;;;;24.37;60.58;98743.38;2055076;28;20030;-62
2021/06/21 04:08:21;;;;;;;8.40;7.60;;;;;;;24.37;60.61;98744.22;2064755;28;20116;-62
2021/06/21 04:09:22;;;;;;;9.07;8.17;;;;;;;24.36;60.65;98742.53;2054350;28;20033;-62
2021/06/21 04:10:24;;;;;;;8.33;7.50;;;;;;;24.36;60.70;98750.78;2056101;28;20709;-62
2021/06/21 04:11:26;;;;;;;8.95;8.05;;;;;;;24.37;60.54;98748.88;2057015;28;20705;-62
2021/06/21 04:12:27;;;;;;;8.68;7.88;;;;;;;24.35;60.61;98749.13;2052435;28;20030;-62
2021/06/21 04:13:29;;;;;;;9.18;8.00;;;;;;;24.35;60.57;98757.38;2054429;28;20039;-62
2021/06/21 04:14:29;;;;;;;9.43;8.10;;;;;;;24.36;60.59;98747.19;2054413;28;20084;-62
2021/06/21 04:15:31;;;;;;;9.67;8.67;;;;;;;24.35;60.48;98751.88;2058569;28;20026;-62
2021/06/21 04:16:31;;;;;;;7.97;7.22;;;;;;;24.35;60.63;98751.88;2062503;28;20493;-62
2021/06/21 04:17:32;;;;;;;10.20;7.90;;;;;;;24.36;60.53;98753.56;2053560;28;20410;-62
2021/06/21 04:18:32;;;;;;;9.47;8.47;;;;;;;24.35;60.63;98749.13;2053755;28;20026;-62
2021/06/21 04:19:33;;;;;;;8.40;7.50;;;;;;;24.35;60.64;98748.25;2070869;28;20028;-62
2021/06/21 04:20:34;;;;;;;9.17;8.27;;;;;;;24.35;60.57;98749.13;2063294;28;20029;-62
2021/06/21 04:21:35;;;;;;;9.05;8.13;;;;;;;24.35;60.67;98749.13;2057989;28;20057;-61
2021/06/21 04:22:36;;;;;;;9.30;7.60;;;;;;;24.35;60.63;98751.00;2059826;28;20030;-62
2021/06/21 04:23:37;;;;;;;8.70;7.80;;;;;;;24.35;60.56;98756.50;2062021;28;20037;-61
2021/06/21 04:24:37;;;;;;;8.90;8.00;;;;;;;24.36;60.58;98753.56;2062580;28;20041;-62
2021/06/21 04:25:38;;;;;;;8.33;7.47;;;;;;;24.36;60.53;98759.06;2062961;28;20046;-61
2021/06/21 04:26:40;;;;;;;9.80;8.23;;;;;;;24.36;60.39;98764.56;2065327;28;20550;-62
2021/06/21 04:27:41;;;;;;;8.85;7.38;;;;;;;24.35;60.47;98768.41;2053162;28;20445;-62
2021/06/21 04:28:42;;;;;;;8.80;7.90;;;;;;;24.36;60.54;98775.59;2053365;28;20121;-62
2021/06/21 04:29:43;;;;;;;8.83;7.87;;;;;;;24.35;60.50;98778.53;2056737;28;20030;-62
2021/06/21 04:30:45;;;;;;;9.03;7.97;;;;;;;24.35;60.77;98775.78;2058901;28;20253;-62
2021/06/21 04:31:45;;;;;;;9.02;8.02;;;;;;;24.36;60.61;98777.50;2062400;28;20049;-62
2021/06/21 04:32:46;;;;;;;9.30;8.40;;;;;;;24.35;60.50;98779.41;2062278;28;20030;-62
2021/06/21 04:33:47;;;;;;;8.02;7.20;;;;;;;24.35;60.48;98784.06;2062227;28;20026;-62
2021/06/21 04:34:47;;;;;;;9.57;7.83;;;;;;;24.36;60.53;98792.09;2050172;28;20400;-62
2021/06/21 04:35:48;;;;;;;8.67;7.60;;;;;;;24.35;60.58;98789.56;2052314;28;20018;-63
2021/06/21 04:36:48;;;;;;;8.50;7.07;;;;;;;24.35;60.59;98790.44;2061731;28;20437;-62
2021/06/21 04:37:49;;;;;;;8.23;7.40;;;;;;;24.35;60.60;98789.56;2062334;28;20032;-62
2021/06/21 04:38:50;;;;;;;11.50;8.23;;;;;;;24.35;60.57;98790.44;2061844;28;20088;-62
2021/06/21 04:39:50;;;;;;;9.10;8.20;;;;;;;24.34;60.56;98782.38;2062307;28;20057;-63
2021/06/21 04:40:51;;;;;;;8.97;7.87;;;;;;;24.35;60.78;98789.56;2061038;28;20022;-63
2021/06/21 04:41:51;;;;;;;8.83;7.93;;;;;;;24.34;60.47;98788.72;2060188;28;20053;-63
2021/06/21 04:42:52;;;;;;;8.43;7.63;;;;;;;24.34;60.48;98793.38;2059863;28;20069;-63
2021/06/21 04:43:52;;;;;;;8.70;7.90;;;;;;;24.34;60.57;98799.72;2057634;28;20049;-62
2021/06/21 04:44:53;;;;;;;8.87;7.97;;;;;;;24.34;60.67;98799.72;2062820;28;20477;-62
2021/06/21 04:45:53;;;;;;;9.20;8.23;;;;;;;24.34;60.58;98804.41;2062130;28;20030;-62
2021/06/21 04:46:54;;;;;;;8.60;7.67;;;;;;;24.33;60.42;98798.06;2061229;28;20436;-63
2021/06/21 04:47:54;;;;;;;8.80;7.47;;;;;;;24.34;60.58;98801.66;2061709;28;20025;-63
2021/06/21 04:48:56;;;;;;;8.60;7.70;;;;;;;24.35;60.54;98804.19;2063443;28;20015;-63
2021/06/21 04:49:57;;;;;;;8.27;7.32;;;;;;;24.35;60.64;98792.31;2061020;28;20441;-63
2021/06/21 04:50:57;;;;;;;8.55;7.72;;;;;;;24.35;60.52;98795.06;2063575;28;20336;-63
2021/06/21 04:51:58;;;;;;;7.83;7.03;;;;;;;24.34;60.62;98799.72;2060366;28;20026;-63
2021/06/21 04:52:59;;;;;;;8.13;7.32;;;;;;;24.34;60.56;98799.72;2061997;28;20053;-62
2021/06/21 04:53:59;;;;;;;8.33;7.40;;;;;;;24.33;60.65;98795.31;2068213;28;20504;-62
2021/06/21 04:55:03;;;;;;;10.03;8.63;;;;;;;24.33;60.47;98797.22;2055216;28;20324;-63
2021/06/21 04:56:04;;;;;;;8.93;7.53;;;;;;;24.32;60.59;98801.84;2062356;28;20153;-63